Time;durP1;ratioP1;P1;durP2;ratioP2;P2;SDS_P1;SDS_P2;PMS_P1;PMS_P2;Temp;Humidity;BMP_temperature;BMP_pressure;BME280_temperature;BME280_humidity;BME280_pressure;Samples;Min_cycle;Max_cycle;Signal;HPM_P1;HPM_P2
2022/05/25 00:00:14;;;;;;;3.72;2.85;;;;;;;;;;2077676;28;20026;-62
2022/05/25 00:01:33;;;;;;;3.88;2.78;;;;;;;;;;2074769;28;20038;-62
2022/05/25 00:02:52;;;;;;;3.58;3.00;;;;;;;;;;2077292;28;20030;-62
2022/05/25 00:04:11;;;;;;;3.17;2.80;;;;;;;;;;2076844;28;20030;-63
2022/05/25 00:05:33;;;;;;;3.50;3.00;;;;;;;;;;2079988;28;20038;-62
2022/05/25 00:06:52;;;;;;;4.10;3.10;;;;;;;;;;2077182;28;20112;-62
2022/05/25 00:08:13;;;;;;;5.47;2.80;;;;;;;;;;2075837;28;20033;-63
2022/05/25 00:09:32;;;;;;;4.68;2.42;;;;;;;;;;2076380;28;20030;-62
2022/05/25 00:10:51;;;;;;;4.97;2.97;;;;;;;;;;2075154;28;20046;-63
2022/05/25 00:12:10;;;;;;;4.75;2.70;;;;;;;;;;2079528;28;20037;-63
2022/05/25 00:13:29;;;;;;;3.15;2.92;;;;;;;;;;2074699;28;20889;-63
2022/05/25 00:14:48;;;;;;;3.10;2.80;;;;;;;;;;2074078;28;20097;-63
2022/05/25 00:16:07;;;;;;;5.68;3.20;;;;;;;;;;2076284;28;20029;-63
2022/05/25 00:17:26;;;;;;;4.28;3.33;;;;;;;;;;2075539;28;20026;-63
2022/05/25 00:20:23;;;;;;;3.42;3.10;;;;;;;;;;2076622;28;20030;-62
2022/05/25 00:21:42;;;;;;;3.78;3.03;;;;;;;;;;2076006;28;20026;-63
2022/05/25 00:23:01;;;;;;;4.85;3.00;;;;;;;;;;2071918;28;20030;-62
2022/05/25 00:24:20;;;;;;;4.45;2.90;;;;;;;;;;2073942;28;20572;-63
2022/05/25 00:25:40;;;;;;;4.20;2.97;;;;;;;;;;2076613;28;20488;-62
2022/05/25 00:26:59;;;;;;;7.22;3.30;;;;;;;;;;2073247;28;20022;-62
2022/05/25 00:28:18;;;;;;;8.10;3.10;;;;;;;;;;2077709;28;20096;-62
2022/05/25 00:29:37;;;;;;;3.40;3.10;;;;;;;;;;2074122;28;20017;-63
2022/05/25 00:30:57;;;;;;;4.03;3.15;;;;;;;;;;2076258;28;20029;-62
2022/05/25 00:32:16;;;;;;;3.58;3.08;;;;;;;;;;2076046;28;20450;-62
2022/05/25 00:33:35;;;;;;;9.00;3.08;;;;;;;;;;2076858;28;20442;-64
2022/05/25 00:34:54;;;;;;;5.30;3.72;;;;;;;;;;2076373;28;20030;-63
2022/05/25 00:36:13;;;;;;;4.35;2.90;;;;;;;;;;2077880;28;20527;-63
2022/05/25 00:37:32;;;;;;;5.05;3.17;;;;;;;;;;2077835;28;20037;-63
2022/05/25 00:38:51;;;;;;;5.18;3.00;;;;;;;;;;2076581;28;20034;-63
2022/05/25 00:40:12;;;;;;;5.22;3.08;;;;;;;;;;2077176;28;20067;-63
2022/05/25 00:41:31;;;;;;;5.32;3.00;;;;;;;;;;2079354;28;20462;-62
2022/05/25 00:42:51;;;;;;;3.92;3.10;;;;;;;;;;2079310;28;20499;-62
2022/05/25 00:44:10;;;;;;;5.32;2.83;;;;;;;;;;2079445;28;20029;-62
2022/05/25 00:45:35;;;;;;;4.10;3.28;;;;;;;;;;2078073;28;20457;-62
2022/05/25 00:46:54;;;;;;;5.75;3.20;;;;;;;;;;2076776;28;20034;-62
2022/05/25 00:48:24;;;;;;;6.40;2.70;;;;;;;;;;2076675;28;20034;-61
2022/05/25 00:49:43;;;;;;;4.53;3.05;;;;;;;;;;2076923;28;20030;-62
2022/05/25 00:51:12;;;;;;;5.95;2.83;;;;;;;;;;2080562;28;20045;-61
2022/05/25 00:52:31;;;;;;;4.00;2.83;;;;;;;;;;2077458;28;20468;-63
2022/05/25 00:53:52;;;;;;;4.13;2.58;;;;;;;;;;2077468;28;20042;-62
2022/05/25 00:55:14;;;;;;;5.03;2.63;;;;;;;;;;2075900;28;20408;-61
2022/05/25 00:56:34;;;;;;;8.73;2.70;;;;;;;;;;2075725;28;20041;-62
2022/05/25 00:57:55;;;;;;;4.03;2.80;;;;;;;;;;2077599;28;20025;-62
2022/05/25 00:59:19;;;;;;;4.43;2.70;;;;;;;;;;2078637;28;20104;-62
2022/05/25 01:00:38;;;;;;;4.60;2.88;;;;;;;;;;2078241;28;20085;-61
2022/05/25 01:01:57;;;;;;;3.75;3.33;;;;;;;;;;2076262;28;20037;-61
2022/05/25 01:03:19;;;;;;;3.50;3.15;;;;;;;;;;2073621;28;20034;-62
2022/05/25 01:04:38;;;;;;;6.80;3.55;;;;;;;;;;2077139;28;20053;-61
2022/05/25 01:06:18;;;;;;;4.90;3.55;;;;;;;;;;2076412;28;20066;-61
2022/05/25 01:07:40;;;;;;;3.63;3.30;;;;;;;;;;2081126;28;20423;-63
2022/05/25 01:09:03;;;;;;;5.22;4.22;;;;;;;;;;2091074;28;20020;-61
2022/05/25 01:10:35;;;;;;;7.53;3.38;;;;;;;;;;2080711;28;20491;-62
2022/05/25 01:11:58;;;;;;;7.13;3.58;;;;;;;;;;2077118;28;20026;-62
2022/05/25 01:13:17;;;;;;;5.15;3.67;;;;;;;;;;2075454;28;20412;-62
2022/05/25 01:14:44;;;;;;;6.55;4.00;;;;;;;;;;2075383;28;20065;-62
2022/05/25 01:16:13;;;;;;;5.32;3.50;;;;;;;;;;2075509;28;20405;-61
2022/05/25 01:17:38;;;;;;;5.00;3.50;;;;;;;;;;2075362;28;20101;-62
2022/05/25 01:19:16;;;;;;;4.38;3.92;;;;;;;;;;2074962;28;20033;-62
2022/05/25 01:20:45;;;;;;;5.57;3.53;;;;;;;;;;2075229;28;20492;-62
2022/05/25 01:22:06;;;;;;;4.60;4.13;;;;;;;;;;2074752;28;20026;-61
2022/05/25 01:23:48;;;;;;;4.40;4.00;;;;;;;;;;2074540;28;20116;-62
2022/05/25 01:25:07;;;;;;;6.75;4.95;;;;;;;;;;2074988;28;20499;-61
2022/05/25 01:26:39;;;;;;;4.47;3.55;;;;;;;;;;2075014;28;20033;-62
2022/05/25 01:28:05;;;;;;;4.82;4.35;;;;;;;;;;2075305;28;20029;-61
2022/05/25 01:29:42;;;;;;;6.88;4.55;;;;;;;;;;2074252;28;20443;-62
2022/05/25 01:31:05;;;;;;;4.57;3.67;;;;;;;;;;2075184;28;20492;-61
2022/05/25 01:32:37;;;;;;;6.10;4.53;;;;;;;;;;2073408;28;20610;-62
2022/05/25 01:33:59;;;;;;;6.90;3.97;;;;;;;;;;2074323;28;20120;-62
2022/05/25 01:35:22;;;;;;;6.68;3.75;;;;;;;;;;2074979;28;20389;-63
2022/05/25 01:37:05;;;;;;;6.25;4.65;;;;;;;;;;2072918;28;20029;-63
2022/05/25 01:38:24;;;;;;;7.20;4.33;;;;;;;;;;2075466;28;20045;-61
2022/05/25 01:39:51;;;;;;;6.88;4.68;;;;;;;;;;2078067;28;20630;-62
2022/05/25 01:41:20;;;;;;;4.97;4.57;;;;;;;;;;2076096;28;20497;-62
2022/05/25 01:42:43;;;;;;;10.30;4.00;;;;;;;;;;2075253;28;20021;-62
2022/05/25 01:44:12;;;;;;;5.70;4.85;;;;;;;;;;2074920;28;20418;-61
2022/05/25 01:45:33;;;;;;;4.53;4.00;;;;;;;;;;2075485;28;20037;-61
2022/05/25 01:46:54;;;;;;;6.53;4.53;;;;;;;;;;2076577;28;20034;-62
2022/05/25 01:48:16;;;;;;;6.22;4.78;;;;;;;;;;2073232;28;20030;-62
2022/05/25 01:49:43;;;;;;;6.10;5.00;;;;;;;;;;2078350;28;20037;-61
2022/05/25 01:51:07;;;;;;;5.95;4.90;;;;;;;;;;2076573;28;20442;-61
2022/05/25 01:52:28;;;;;;;5.70;5.15;;;;;;;;;;2076026;28;20067;-61
2022/05/25 01:53:50;;;;;;;5.93;5.32;;;;;;;;;;2076420;28;20034;-61
2022/05/25 01:55:12;;;;;;;6.40;5.57;;;;;;;;;;2077241;28;20037;-62
2022/05/25 01:56:33;;;;;;;5.70;5.13;;;;;;;;;;2075035;28;20491;-61
2022/05/25 01:57:56;;;;;;;4.22;3.90;;;;;;;;;;2076512;28;20430;-62
2022/05/25 01:59:14;;;;;;;;;;;;;;;;;;2078292;28;20026;-62
2022/05/25 02:00:36;;;;;;;5.93;4.57;;;;;;;;;;2075106;28;20367;-62
2022/05/25 02:05:12;;;;;;;6.45;4.68;;;;;;;;;;2076751;28;20025;-62
2022/05/25 02:06:34;;;;;;;7.55;4.60;;;;;;;;;;2075749;28;20223;-62
2022/05/25 02:07:59;;;;;;;6.78;5.00;;;;;;;;;;2076448;28;20033;-63
2022/05/25 02:09:40;;;;;;;5.00;4.60;;;;;;;;;;2071661;28;20124;-62
2022/05/25 02:10:59;;;;;;;8.38;4.57;;;;;;;;;;2071265;28;20045;-62
2022/05/25 02:12:27;;;;;;;5.07;4.30;;;;;;;;;;2075243;28;20100;-62
2022/05/25 02:13:55;;;;;;;5.45;4.53;;;;;;;;;;2074899;28;20030;-62
2022/05/25 02:15:32;;;;;;;6.55;4.43;;;;;;;;;;2077336;28;20030;-63
2022/05/25 02:17:06;;;;;;;4.38;4.00;;;;;;;;;;2076271;28;20036;-63
2022/05/25 02:18:28;;;;;;;7.25;4.47;;;;;;;;;;2075130;28;20026;-62
2022/05/25 02:19:53;;;;;;;4.90;4.30;;;;;;;;;;2078299;28;20058;-62
2022/05/25 02:21:27;;;;;;;4.85;4.45;;;;;;;;;;2076298;28;20021;-63
2022/05/25 02:22:51;;;;;;;6.38;4.68;;;;;;;;;;2074576;28;20065;-62
2022/05/25 02:24:28;;;;;;;4.80;3.83;;;;;;;;;;2075369;28;20496;-62
2022/05/25 02:25:58;;;;;;;4.30;4.00;;;;;;;;;;2077685;28;20495;-62
2022/05/25 02:27:20;;;;;;;3.92;3.63;;;;;;;;;;2076324;28;20053;-62
2022/05/25 02:28:46;;;;;;;3.53;3.33;;;;;;;;;;2074566;28;20033;-62
2022/05/25 02:30:08;;;;;;;4.63;4.35;;;;;;;;;;2074234;28;20026;-62
2022/05/25 02:31:29;;;;;;;4.40;4.10;;;;;;;;;;2072652;28;20034;-62
2022/05/25 02:33:01;;;;;;;5.35;4.45;;;;;;;;;;2076752;28;20029;-61
2022/05/25 02:34:22;;;;;;;6.35;4.10;;;;;;;;;;2082285;28;20112;-62
2022/05/25 02:35:42;;;;;;;4.63;3.78;;;;;;;;;;2077941;28;20030;-63
2022/05/25 02:37:02;;;;;;;4.32;4.00;;;;;;;;;;2073836;28;20030;-63
2022/05/25 02:38:20;;;;;;;4.57;4.28;;;;;;;;;;2077977;28;20022;-62
2022/05/25 02:39:39;;;;;;;4.32;3.92;;;;;;;;;;2075309;28;20030;-62
2022/05/25 02:41:02;;;;;;;4.00;3.70;;;;;;;;;;2074788;28;20065;-62
2022/05/25 02:42:21;;;;;;;4.18;3.88;;;;;;;;;;2074267;28;20033;-62
2022/05/25 02:43:40;;;;;;;4.47;4.18;;;;;;;;;;2071946;28;20049;-62
2022/05/25 02:44:59;;;;;;;4.47;4.18;;;;;;;;;;2075912;28;20038;-62
2022/05/25 02:46:18;;;;;;;4.40;4.10;;;;;;;;;;2075619;28;20506;-62
2022/05/25 02:47:38;;;;;;;4.93;4.53;;;;;;;;;;2076913;28;20041;-62
2022/05/25 02:48:57;;;;;;;4.57;4.18;;;;;;;;;;2074038;28;20030;-62
2022/05/25 02:50:16;;;;;;;4.40;4.00;;;;;;;;;;2078531;28;20041;-63
2022/05/25 02:51:35;;;;;;;4.50;3.97;;;;;;;;;;2074950;28;20026;-63
2022/05/25 02:52:54;;;;;;;4.25;3.95;;;;;;;;;;2076343;28;20022;-62
2022/05/25 02:54:13;;;;;;;3.97;3.67;;;;;;;;;;2076502;28;20046;-62
2022/05/25 02:55:32;;;;;;;5.60;5.20;;;;;;;;;;2077658;28;20034;-62
2022/05/25 02:56:51;;;;;;;4.95;4.65;;;;;;;;;;2077203;28;20419;-62
2022/05/25 02:58:10;;;;;;;4.88;4.53;;;;;;;;;;2074962;28;20026;-62
2022/05/25 02:59:28;;;;;;;5.55;5.15;;;;;;;;;;2074396;28;20030;-62
2022/05/25 03:00:47;;;;;;;5.07;4.72;;;;;;;;;;2074131;28;20325;-62
2022/05/25 03:02:06;;;;;;;5.03;4.63;;;;;;;;;;2076175;28;20025;-62
2022/05/25 03:03:25;;;;;;;5.07;4.68;;;;;;;;;;2078845;28;20029;-62
2022/05/25 03:04:44;;;;;;;4.90;4.50;;;;;;;;;;2075839;28;20046;-63
2022/05/25 03:06:04;;;;;;;4.75;4.45;;;;;;;;;;2076659;28;20054;-63
2022/05/25 03:07:23;;;;;;;5.80;5.40;;;;;;;;;;2073242;28;20042;-62
2022/05/25 03:08:42;;;;;;;4.55;4.00;;;;;;;;;;2075610;28;20042;-62
2022/05/25 03:10:02;;;;;;;5.35;4.97;;;;;;;;;;2078302;28;20069;-62
2022/05/25 03:11:21;;;;;;;4.88;4.50;;;;;;;;;;2075239;28;20034;-62
2022/05/25 03:12:40;;;;;;;5.03;4.72;;;;;;;;;;2076746;28;20492;-62
2022/05/25 03:13:59;;;;;;;5.43;5.03;;;;;;;;;;2077897;28;20030;-62
2022/05/25 03:15:20;;;;;;;4.47;4.18;;;;;;;;;;2072177;28;20026;-62
2022/05/25 03:16:39;;;;;;;5.40;5.00;;;;;;;;;;2076084;28;20021;-62
2022/05/25 03:17:58;;;;;;;5.57;5.18;;;;;;;;;;2077753;28;20026;-62
2022/05/25 03:19:17;;;;;;;5.95;5.43;;;;;;;;;;2075133;28;20030;-63
2022/05/25 03:20:37;;;;;;;7.40;5.32;;;;;;;;;;2075126;28;20022;-62
2022/05/25 03:21:56;;;;;;;6.38;5.65;;;;;;;;;;2076456;28;20025;-62
2022/05/25 03:23:17;;;;;;;6.25;5.85;;;;;;;;;;2078025;28;20112;-62
2022/05/25 03:24:36;;;;;;;5.95;5.55;;;;;;;;;;2077663;28;20034;-62
2022/05/25 03:25:55;;;;;;;5.53;5.13;;;;;;;;;;2076744;28;20464;-62
2022/05/25 03:27:14;;;;;;;6.18;5.70;;;;;;;;;;2077290;28;20030;-63
2022/05/25 03:28:33;;;;;;;5.43;5.13;;;;;;;;;;2075016;28;20221;-63
2022/05/25 03:29:52;;;;;;;5.40;5.07;;;;;;;;;;2076298;28;20030;-64
2022/05/25 03:31:11;;;;;;;7.95;6.13;;;;;;;;;;2074775;28;20034;-62
2022/05/25 03:32:30;;;;;;;6.22;5.72;;;;;;;;;;2077838;28;20029;-63
2022/05/25 03:33:49;;;;;;;6.22;5.75;;;;;;;;;;2077030;28;20030;-62
2022/05/25 03:35:09;;;;;;;7.30;6.78;;;;;;;;;;2077889;28;20476;-62
2022/05/25 03:36:27;;;;;;;6.55;6.15;;;;;;;;;;2075513;28;20034;-63
2022/05/25 03:37:46;;;;;;;6.60;6.10;;;;;;;;;;2075170;28;20026;-62
2022/05/25 03:39:05;;;;;;;6.78;5.22;;;;;;;;;;2078920;28;20029;-62
2022/05/25 03:40:24;;;;;;;6.03;5.63;;;;;;;;;;2076604;28;20033;-63
2022/05/25 03:41:43;;;;;;;7.47;6.85;;;;;;;;;;2076929;28;20062;-62
2022/05/25 03:43:04;;;;;;;5.90;5.50;;;;;;;;;;2077685;28;20025;-62
2022/05/25 03:44:23;;;;;;;6.03;5.53;;;;;;;;;;2076119;28;20022;-61
2022/05/25 03:45:42;;;;;;;5.70;5.30;;;;;;;;;;2075846;28;20054;-64
2022/05/25 03:47:01;;;;;;;6.28;5.82;;;;;;;;;;2069794;28;20038;-63
2022/05/25 03:48:20;;;;;;;5.88;5.38;;;;;;;;;;2077779;28;20018;-62
2022/05/25 03:49:39;;;;;;;5.80;5.10;;;;;;;;;;2076796;28;20021;-62
2022/05/25 03:50:58;;;;;;;5.43;5.00;;;;;;;;;;2079463;28;20473;-62
2022/05/25 03:52:21;;;;;;;5.30;4.97;;;;;;;;;;2076933;28;20034;-62
2022/05/25 03:53:40;;;;;;;6.13;5.72;;;;;;;;;;2077553;28;20452;-63
2022/05/25 03:54:59;;;;;;;5.55;5.15;;;;;;;;;;2077684;28;20034;-62
2022/05/25 03:56:18;;;;;;;10.10;5.97;;;;;;;;;;2077875;28;20022;-62
2022/05/25 03:57:37;;;;;;;6.47;5.97;;;;;;;;;;2079034;28;20025;-62
2022/05/25 03:58:56;;;;;;;5.70;5.30;;;;;;;;;;2076583;28;20539;-62
2022/05/25 04:00:16;;;;;;;6.38;5.78;;;;;;;;;;2075852;28;20034;-62
2022/05/25 04:01:35;;;;;;;6.35;5.72;;;;;;;;;;2077603;28;20025;-62
2022/05/25 04:02:56;;;;;;;6.00;5.57;;;;;;;;;;2078930;28;20026;-62
2022/05/25 04:04:14;;;;;;;5.75;5.35;;;;;;;;;;2079225;28;20026;-62
2022/05/25 04:05:34;;;;;;;5.32;4.93;;;;;;;;;;2075928;28;20064;-62
2022/05/25 04:06:53;;;;;;;5.82;5.43;;;;;;;;;;2076841;28;20025;-63
2022/05/25 04:08:12;;;;;;;5.40;4.90;;;;;;;;;;2078174;28;20124;-62
2022/05/25 04:09:30;;;;;;;4.88;4.57;;;;;;;;;;2077888;28;20026;-63
2022/05/25 04:10:49;;;;;;;4.68;4.15;;;;;;;;;;2077135;28;20045;-62
2022/05/25 04:12:08;;;;;;;4.82;4.53;;;;;;;;;;2076538;28;20025;-62
2022/05/25 04:13:27;;;;;;;4.43;4.13;;;;;;;;;;2075257;28;20038;-62
2022/05/25 04:14:46;;;;;;;4.28;3.97;;;;;;;;;;2078089;28;20022;-62
2022/05/25 04:16:05;;;;;;;3.83;3.60;;;;;;;;;;2076121;28;20026;-66
2022/05/25 04:17:24;;;;;;;3.90;3.70;;;;;;;;;;2078190;28;20029;-62
2022/05/25 04:18:43;;;;;;;3.72;3.53;;;;;;;;;;2076069;28;20515;-64
2022/05/25 04:20:03;;;;;;;3.63;3.42;;;;;;;;;;2078411;28;20025;-63
2022/05/25 04:21:22;;;;;;;3.55;3.35;;;;;;;;;;2077594;28;20029;-64
2022/05/25 04:22:41;;;;;;;3.63;3.42;;;;;;;;;;2077860;28;20033;-62
2022/05/25 04:24:01;;;;;;;3.60;3.35;;;;;;;;;;2076793;28;20025;-63
2022/05/25 04:25:22;;;;;;;4.00;3.58;;;;;;;;;;2074658;28;20508;-63
2022/05/25 04:26:41;;;;;;;3.78;3.47;;;;;;;;;;2076883;28;20034;-63
2022/05/25 04:28:00;;;;;;;4.13;3.78;;;;;;;;;;2072786;28;20022;-62
2022/05/25 04:29:19;;;;;;;3.92;3.72;;;;;;;;;;2076304;28;20034;-62
2022/05/25 04:30:38;;;;;;;3.83;3.47;;;;;;;;;;2075492;28;20041;-62
2022/05/25 04:31:56;;;;;;;3.20;3.00;;;;;;;;;;2073771;28;20372;-62
2022/05/25 04:33:16;;;;;;;3.60;3.30;;;;;;;;;;2075302;28;20387;-62
2022/05/25 04:34:34;;;;;;;3.90;3.47;;;;;;;;;;2076546;28;20033;-62
2022/05/25 04:35:54;;;;;;;3.55;3.35;;;;;;;;;;2075318;28;20499;-63
2022/05/25 04:38:51;;;;;;;3.70;3.40;;;;;;;;;;2075227;28;20026;-64
2022/05/25 04:40:11;;;;;;;3.40;3.20;;;;;;;;;;2074515;28;20376;-62
2022/05/25 04:41:30;;;;;;;3.17;2.92;;;;;;;;;;2074686;28;20521;-64
2022/05/25 04:42:50;;;;;;;3.70;3.47;;;;;;;;;;2073048;28;20026;-64
2022/05/25 04:44:09;;;;;;;3.60;3.38;;;;;;;;;;2076575;28;20511;-64
2022/05/25 04:45:29;;;;;;;3.38;3.15;;;;;;;;;;2075956;28;20391;-63
2022/05/25 04:46:49;;;;;;;5.45;3.50;;;;;;;;;;2077133;28;20030;-63
2022/05/25 04:48:08;;;;;;;3.50;3.30;;;;;;;;;;2076429;28;20053;-63
2022/05/25 04:49:27;;;;;;;3.70;3.50;;;;;;;;;;2073897;28;20026;-62
2022/05/25 04:50:47;;;;;;;3.70;3.50;;;;;;;;;;2074806;28;20049;-62
2022/05/25 04:52:06;;;;;;;3.95;3.65;;;;;;;;;;2070786;28;20033;-63
2022/05/25 04:53:25;;;;;;;4.22;3.92;;;;;;;;;;2071003;28;20068;-63
2022/05/25 04:54:44;;;;;;;4.35;4.05;;;;;;;;;;2072121;28;20030;-63
2022/05/25 04:57:41;;;;;;;3.60;3.40;;;;;;;;;;2072186;28;20025;-63
2022/05/25 04:59:00;;;;;;;4.40;3.80;;;;;;;;;;2076120;28;20069;-64
2022/05/25 05:00:19;;;;;;;4.25;3.85;;;;;;;;;;2076794;28;20018;-63
2022/05/25 05:01:38;;;;;;;5.93;4.75;;;;;;;;;;2073919;28;20023;-62
2022/05/25 05:02:56;;;;;;;4.50;4.20;;;;;;;;;;2078247;28;20021;-63
2022/05/25 05:04:15;;;;;;;4.15;3.88;;;;;;;;;;2073988;28;20524;-63
2022/05/25 05:05:35;;;;;;;4.68;4.38;;;;;;;;;;2074272;28;20038;-63
2022/05/25 05:06:54;;;;;;;4.60;4.20;;;;;;;;;;2074057;28;20025;-63
2022/05/25 05:08:13;;;;;;;3.80;3.60;;;;;;;;;;2073392;28;20025;-61
2022/05/25 05:09:33;;;;;;;5.10;4.72;;;;;;;;;;2074479;28;20396;-61
2022/05/25 05:10:52;;;;;;;5.10;4.60;;;;;;;;;;2075185;28;20022;-63
2022/05/25 05:12:12;;;;;;;5.43;4.93;;;;;;;;;;2075646;28;20041;-62
2022/05/25 05:13:31;;;;;;;4.20;3.90;;;;;;;;;;2072715;28;20033;-62
2022/05/25 05:14:50;;;;;;;4.60;4.30;;;;;;;;;;2077224;28;20484;-62
2022/05/25 05:16:11;;;;;;;5.35;4.95;;;;;;;;;;2076447;28;20057;-62
2022/05/25 05:17:30;;;;;;;5.25;4.85;;;;;;;;;;2076845;28;20029;-63
2022/05/25 05:18:48;;;;;;;4.78;4.15;;;;;;;;;;2078140;28;20022;-62
2022/05/25 05:20:08;;;;;;;5.70;5.20;;;;;;;;;;2078299;28;20029;-62
2022/05/25 05:21:26;;;;;;;5.90;5.30;;;;;;;;;;2076272;28;20034;-62
2022/05/25 05:22:46;;;;;;;4.55;4.30;;;;;;;;;;2077126;28;20029;-63
2022/05/25 05:24:05;;;;;;;3.97;3.67;;;;;;;;;;2076975;28;20492;-65
2022/05/25 05:25:23;;;;;;;5.72;5.30;;;;;;;;;;2076291;28;20042;-63
2022/05/25 05:26:42;;;;;;;4.70;4.38;;;;;;;;;;2074413;28;20113;-65
2022/05/25 05:28:10;;;;;;;5.45;5.05;;;;;;;;;;2075982;28;20474;-63
2022/05/25 05:29:30;;;;;;;4.45;4.22;;;;;;;;;;2076413;28;20148;-64
2022/05/25 05:30:53;;;;;;;5.30;4.90;;;;;;;;;;2077024;28;20046;-64
2022/05/25 05:32:12;;;;;;;5.30;4.90;;;;;;;;;;2078200;28;20030;-63
2022/05/25 05:33:32;;;;;;;8.27;4.80;;;;;;;;;;2078554;28;20034;-64
2022/05/25 05:34:51;;;;;;;4.85;4.45;;;;;;;;;;2076653;28;20022;-66
2022/05/25 05:36:10;;;;;;;4.68;4.28;;;;;;;;;;2074338;28;20030;-65
2022/05/25 05:37:38;;;;;;;4.60;4.20;;;;;;;;;;2076735;28;20101;-64
2022/05/25 05:39:02;;;;;;;3.85;3.65;;;;;;;;;;2076037;28;20025;-66
2022/05/25 05:40:21;;;;;;;5.50;4.85;;;;;;;;;;2076675;28;20447;-65
2022/05/25 05:41:52;;;;;;;4.68;4.38;;;;;;;;;;2075951;28;20026;-65
2022/05/25 05:43:12;;;;;;;4.13;3.83;;;;;;;;;;2077965;28;20543;-65
2022/05/25 05:44:51;;;;;;;3.55;3.25;;;;;;;;;;2075781;28;20022;-66
2022/05/25 05:46:11;;;;;;;5.28;4.97;;;;;;;;;;2077975;28;20475;-66
2022/05/25 05:47:32;;;;;;;5.75;5.32;;;;;;;;;;2076870;28;20042;-65
2022/05/25 05:48:51;;;;;;;5.30;4.80;;;;;;;;;;2075988;28;20034;-66
2022/05/25 05:50:11;;;;;;;7.25;5.40;;;;;;;;;;2077804;28;20034;-66
2022/05/25 05:51:29;;;;;;;5.80;5.40;;;;;;;;;;2077209;28;20030;-64
2022/05/25 05:52:49;;;;;;;5.47;5.07;;;;;;;;;;2077072;28;20033;-65
2022/05/25 05:54:09;;;;;;;5.97;5.57;;;;;;;;;;2077871;28;20026;-64
2022/05/25 05:55:27;;;;;;;6.20;5.75;;;;;;;;;;2075560;28;20022;-65
2022/05/25 05:56:46;;;;;;;6.93;6.43;;;;;;;;;;2075934;28;20026;-64
2022/05/25 05:58:05;;;;;;;6.28;5.65;;;;;;;;;;2075346;28;20018;-65
2022/05/25 05:59:24;;;;;;;6.78;6.38;;;;;;;;;;2079966;28;20026;-64
2022/05/25 06:00:43;;;;;;;6.25;5.75;;;;;;;;;;2078048;28;20029;-64
2022/05/25 06:02:02;;;;;;;6.25;5.75;;;;;;;;;;2075686;28;20038;-65
2022/05/25 06:03:20;;;;;;;6.70;6.30;;;;;;;;;;2075679;28;20427;-64
2022/05/25 06:04:39;;;;;;;5.90;5.35;;;;;;;;;;2075307;28;20419;-64
2022/05/25 06:05:58;;;;;;;6.55;6.05;;;;;;;;;;2077610;28;20455;-64
2022/05/25 06:07:18;;;;;;;6.55;6.10;;;;;;;;;;2077023;28;20038;-65
2022/05/25 06:08:36;;;;;;;5.80;5.40;;;;;;;;;;2076114;28;20029;-65
2022/05/25 06:09:56;;;;;;;5.60;5.00;;;;;;;;;;2077374;28;20061;-65
2022/05/25 06:11:16;;;;;;;6.65;6.10;;;;;;;;;;2076546;28;20030;-65
2022/05/25 06:12:35;;;;;;;6.32;5.78;;;;;;;;;;2076062;28;20116;-65
2022/05/25 06:13:54;;;;;;;5.82;5.32;;;;;;;;;;2078418;28;20105;-65
2022/05/25 06:20:24;;;;;;;6.35;5.95;;;;;;;;;;2077634;28;20029;-65
2022/05/25 06:21:43;;;;;;;7.78;7.18;;;;;;;;;;2075362;28;20034;-65
2022/05/25 06:23:03;;;;;;;6.93;6.43;;;;;;;;;;2078321;28;20112;-65
2022/05/25 06:24:21;;;;;;;6.85;6.35;;;;;;;;;;2074851;28;20034;-65
2022/05/25 06:25:40;;;;;;;7.13;6.18;;;;;;;;;;2076243;28;20529;-65
2022/05/25 06:26:59;;;;;;;7.03;6.55;;;;;;;;;;2074957;28;20404;-64
2022/05/25 06:28:18;;;;;;;6.75;6.35;;;;;;;;;;2072776;28;20038;-64
2022/05/25 06:29:47;;;;;;;7.40;5.68;;;;;;;;;;2075449;28;20033;-64
2022/05/25 06:31:06;;;;;;;6.72;6.22;;;;;;;;;;2074553;28;20025;-64
2022/05/25 06:32:27;;;;;;;6.90;6.45;;;;;;;;;;2076454;28;20030;-66
2022/05/25 06:33:46;;;;;;;6.25;5.85;;;;;;;;;;2074736;28;20117;-65
2022/05/25 06:35:05;;;;;;;6.55;6.05;;;;;;;;;;2075568;28;20033;-65
2022/05/25 06:36:25;;;;;;;5.95;5.55;;;;;;;;;;2076427;28;20108;-64
2022/05/25 06:37:44;;;;;;;7.18;6.57;;;;;;;;;;2074473;28;20033;-65
2022/05/25 06:39:03;;;;;;;6.43;5.93;;;;;;;;;;2075165;28;20030;-64
2022/05/25 06:40:23;;;;;;;6.43;6.00;;;;;;;;;;2076036;28;20480;-64
2022/05/25 06:41:42;;;;;;;6.72;6.13;;;;;;;;;;2077269;28;20034;-65
2022/05/25 06:43:00;;;;;;;5.95;5.35;;;;;;;;;;2073837;28;20033;-64
2022/05/25 06:44:20;;;;;;;7.18;6.53;;;;;;;;;;2076518;28;20391;-66
2022/05/25 06:45:38;;;;;;;6.45;5.90;;;;;;;;;;2074805;28;20609;-67
2022/05/25 06:46:57;;;;;;;7.00;6.50;;;;;;;;;;2076853;28;20025;-64
2022/05/25 06:48:16;;;;;;;6.63;6.13;;;;;;;;;;2076038;28;20519;-64
2022/05/25 06:49:35;;;;;;;6.65;6.18;;;;;;;;;;2077419;28;20220;-65
2022/05/25 06:50:54;;;;;;;6.63;6.18;;;;;;;;;;2076699;28;20034;-65
2022/05/25 06:52:13;;;;;;;6.88;6.32;;;;;;;;;;2076523;28;20033;-65
2022/05/25 06:53:32;;;;;;;6.05;5.65;;;;;;;;;;2077344;28;20025;-66
2022/05/25 06:54:52;;;;;;;7.05;6.35;;;;;;;;;;2076463;28;20116;-66
2022/05/25 06:56:10;;;;;;;8.30;6.20;;;;;;;;;;2075959;28;20030;-66
2022/05/25 06:57:29;;;;;;;6.00;5.43;;;;;;;;;;2077761;28;20100;-64
2022/05/25 06:58:48;;;;;;;7.63;6.60;;;;;;;;;;2076284;28;20037;-64
2022/05/25 07:00:07;;;;;;;5.95;5.43;;;;;;;;;;2076714;28;20478;-64
2022/05/25 07:01:26;;;;;;;6.85;6.32;;;;;;;;;;2075845;28;20076;-65
2022/05/25 07:02:45;;;;;;;6.15;5.75;;;;;;;;;;2075056;28;20034;-65
2022/05/25 07:04:05;;;;;;;6.13;5.50;;;;;;;;;;2076670;28;20042;-64
2022/05/25 07:05:23;;;;;;;6.88;6.03;;;;;;;;;;2083681;28;20038;-64
2022/05/25 07:06:42;;;;;;;6.47;5.97;;;;;;;;;;2077541;28;20026;-65
2022/05/25 07:08:01;;;;;;;6.35;5.85;;;;;;;;;;2074524;28;20034;-65
2022/05/25 07:09:20;;;;;;;6.15;5.55;;;;;;;;;;2075664;28;20033;-64
2022/05/25 07:10:45;;;;;;;5.25;4.95;;;;;;;;;;2075657;28;20030;-64
2022/05/25 07:12:04;;;;;;;5.68;5.30;;;;;;;;;;2076749;28;20033;-65
2022/05/25 07:13:23;;;;;;;5.40;5.00;;;;;;;;;;2075521;28;20030;-65
2022/05/25 07:14:42;;;;;;;5.43;5.03;;;;;;;;;;2076179;28;20038;-64
2022/05/25 07:16:02;;;;;;;6.07;5.53;;;;;;;;;;2078866;28;20018;-64
2022/05/25 07:17:21;;;;;;;5.95;5.45;;;;;;;;;;2076418;28;20109;-64
2022/05/25 07:18:40;;;;;;;6.70;5.47;;;;;;;;;;2074649;28;20025;-65
2022/05/25 07:20:00;;;;;;;5.50;4.97;;;;;;;;;;2078755;28;20495;-65
2022/05/25 07:21:21;;;;;;;6.43;5.40;;;;;;;;;;2076756;28;20025;-65
2022/05/25 07:22:40;;;;;;;6.50;5.68;;;;;;;;;;2075692;28;20022;-65
2022/05/25 07:24:00;;;;;;;6.50;5.82;;;;;;;;;;2077651;28;20021;-65
2022/05/25 07:25:18;;;;;;;5.95;5.20;;;;;;;;;;2075798;28;20038;-65
2022/05/25 07:26:37;;;;;;;5.65;5.25;;;;;;;;;;2077119;28;20033;-67
2022/05/25 07:27:56;;;;;;;5.30;4.80;;;;;;;;;;2074393;28;20484;-66
2022/05/25 07:29:15;;;;;;;6.50;6.00;;;;;;;;;;2076656;28;20126;-66
2022/05/25 07:30:34;;;;;;;6.60;5.00;;;;;;;;;;2078490;28;20029;-67
2022/05/25 07:31:55;;;;;;;5.68;5.18;;;;;;;;;;2078948;28;20042;-67
2022/05/25 07:33:15;;;;;;;6.03;5.07;;;;;;;;;;2077457;28;20026;-66
2022/05/25 07:34:37;;;;;;;5.25;4.85;;;;;;;;;;2077215;28;20506;-66
2022/05/25 07:35:57;;;;;;;5.30;4.90;;;;;;;;;;2078182;28;20511;-66
2022/05/25 07:37:18;;;;;;;5.28;4.80;;;;;;;;;;2076237;28;20018;-66
2022/05/25 07:38:41;;;;;;;5.53;4.95;;;;;;;;;;2077305;28;20061;-66
2022/05/25 07:40:02;;;;;;;6.53;5.93;;;;;;;;;;2077612;28;20479;-66
2022/05/25 07:41:21;;;;;;;7.88;6.30;;;;;;;;;;2073347;28;20034;-66
2022/05/25 07:42:42;;;;;;;6.15;5.57;;;;;;;;;;2074265;28;20025;-68
2022/05/25 07:44:02;;;;;;;5.93;5.38;;;;;;;;;;2077259;28;20506;-66
2022/05/25 07:45:21;;;;;;;6.25;5.80;;;;;;;;;;2075770;28;20065;-67
2022/05/25 07:46:40;;;;;;;6.80;5.13;;;;;;;;;;2075629;28;20025;-66
2022/05/25 07:48:00;;;;;;;8.40;5.18;;;;;;;;;;2074595;28;20113;-66
2022/05/25 07:49:19;;;;;;;5.28;4.97;;;;;;;;;;2075190;28;20033;-66
2022/05/25 07:50:39;;;;;;;5.45;4.85;;;;;;;;;;2076496;28;20443;-65
2022/05/25 07:51:58;;;;;;;5.35;4.38;;;;;;;;;;2076978;28;20030;-66
2022/05/25 07:54:56;;;;;;;6.22;4.90;;;;;;;;;;2076655;28;20395;-66
2022/05/25 07:56:15;;;;;;;5.18;4.18;;;;;;;;;;2077986;28;20112;-66
2022/05/25 07:57:35;;;;;;;4.90;4.53;;;;;;;;;;2075761;28;20030;-66
2022/05/25 07:58:54;;;;;;;5.43;4.82;;;;;;;;;;2075345;28;20488;-66
2022/05/25 08:00:14;;;;;;;5.63;4.30;;;;;;;;;;2075980;28;20022;-65
2022/05/25 08:06:29;;;;;;;4.97;4.20;;;;;;;;;;2077012;28;20081;-65
2022/05/25 08:07:48;;;;;;;4.35;4.03;;;;;;;;;;2073959;28;20042;-66
2022/05/25 08:09:07;;;;;;;8.10;4.35;;;;;;;;;;2075868;28;20442;-65
2022/05/25 08:10:26;;;;;;;4.07;3.78;;;;;;;;;;2077704;28;20033;-65
2022/05/25 08:11:45;;;;;;;4.50;4.10;;;;;;;;;;2073141;28;20112;-65
2022/05/25 08:13:05;;;;;;;3.80;3.38;;;;;;;;;;2076572;28;20061;-65
2022/05/25 08:14:25;;;;;;;4.22;3.80;;;;;;;;;;2074244;28;20493;-65
2022/05/25 08:15:45;;;;;;;3.70;3.50;;;;;;;;;;2078226;28;20033;-65
2022/05/25 08:17:06;;;;;;;4.07;3.67;;;;;;;;;;2073918;28;20021;-65
2022/05/25 08:18:25;;;;;;;4.40;3.60;;;;;;;;;;2074469;28;20479;-65
2022/05/25 08:19:44;;;;;;;3.63;3.30;;;;;;;;;;2073633;28;20026;-65
2022/05/25 08:21:03;;;;;;;6.55;3.63;;;;;;;;;;2077771;28;20030;-66
2022/05/25 08:22:22;;;;;;;4.43;3.45;;;;;;;;;;2078054;28;20026;-65
2022/05/25 08:23:41;;;;;;;4.95;3.83;;;;;;;;;;2079029;28;20045;-66